Jefferson City, TN (37760)

4:34 PM EDT on July 28, 2015 (GMT -0400)
KTNJEFFE2 | | Change Station
CLOSE
Current Station
Personal Weather Station
Location: Jefferson City, TN
Elevation: 1205 ft
Nearby Weather Stations

Elev 1205 ft 36.14 °N, 83.44 °W | Updated 38 seconds ago

Partly Cloudy
Partly Cloudy
82.3 °F
Feels Like 89 °F
N
7.0
Wind Variable Wind from NW
Gusts 11.0 mph

Today
High -- | Low -- °F
--% Chance of Precip.
Yesterday
High -- | Low -- °F
Precip. -- in
6:37 AM 8:42 PM
Waxing Gibbous, 91% visible
Pressure 29.97 in
Visibility 10.0 miles
Clouds Scattered Clouds 3700 ft
Scattered Clouds 11000 ft
Mostly Cloudy 25000 ft
Heat Index 89 °F
Dew Point 75 °F
Humidity 79%
Rainfall 0.23 in
Snow Depth Not available.
UV 5 out of 12
Pollen 3.80 out of 12
Air Quality Not available.
Flu Activity Not available.
SPECI KTYS 282001Z COR 26011KT 10SM -TSRA SCT037CB SCT110 BKN250 32/22 A2997 RMK AO2 RAB01 TSB01 OCNL LTGICCCCACG OHD TS OHD MOV SE P0000 T03220222 $

More Conditions Fewer Conditions

Pressure 29.97 in
Visibility 10.0 miles
Clouds Scattered Clouds 3700 ft
Scattered Clouds 11000 ft
Mostly Cloudy 25000 ft
Heat Index 89 °F
Dew Point 75 °F
Humidity 79%
Rainfall 0.23 in
Snow Depth Not available.
UV 5 out of 12
Pollen 3.80 out of 12
Air Quality Not available.
Flu Activity Not available.
SPECI KTYS 282001Z COR 26011KT 10SM -TSRA SCT037CB SCT110 BKN250 32/22 A2997 RMK AO2 RAB01 TSB01 OCNL LTGICCCCACG OHD TS OHD MOV SE P0000 T03220222 $

More Conditions Fewer Conditions

10-Day Weather Forecast

×

Almanac

Astronomy

Jul. 28, 2015 Rise Set
Actual Time
Civil Twilight
Nautical Twilight
Astronomical Twilight
Moon
Length of Visible Light
Length of Day
Tomorrow will be .
, % of the Moon is Illuminated

Today's Extremes

State Highs State Lows

Community

WunderPhotos

Upload Photos

1,841,943 photos uploaded!

WunderBlogs® & News

Nearby

Air Quality

  Air Quality AQ Index Pollutant
Not available.

Snow Depth

Station Depth Elevation

Earthquake Activity

City Distance Mag. Time & Date
Minimum magnitude displayed is 2.5.

Coastal Water Temperatures

Place Temperature

Stations

Nearby Weather Stations

Station Location Temp. Windchill Dew Point Humidity Wind Precip. Elev Updated Type